Terminal Aerodrome Forecast
Issued by NWS Charleston, WV

Current Version | Previous Version | Graphics & Text | Print | Product List | Glossary On
Versions: 1 2 3 4 5 6 7 8 9 10 11 12 13 14 15 16 17 18 19 20 21 22 23
081
FTUS41 KRLX 232053 AAA
TAFCRW
TAF AMD
KCRW 232053Z 2321/2418 00000KT P6SM FEW180=

USA.gov is the U.S. government's official web portal to all federal, state and local government web resources and services.